createdAt,value
2023-03-30T00:02:05.744Z,49.18
2023-03-30T00:05:08.772Z,49.27
2023-03-30T00:08:11.142Z,48.87
2023-03-30T00:11:18.244Z,49.79
2023-03-30T00:14:22.980Z,49.50
2023-03-30T00:17:26.264Z,49.08
2023-03-30T00:20:28.371Z,48.93
2023-03-30T00:23:30.518Z,50.11
2023-03-30T00:26:32.576Z,49.02
2023-03-30T00:29:34.870Z,50.10
2023-03-30T00:32:40.024Z,48.37
2023-03-30T00:35:53.702Z,48.93
2023-03-30T00:38:59.443Z,48.83
2023-03-30T00:42:01.826Z,49.22
2023-03-30T00:45:19.560Z,48.21
2023-03-30T00:48:34.792Z,48.69
2023-03-30T00:51:44.541Z,49.67
2023-03-30T00:54:47.830Z,48.44
2023-03-30T00:57:51.457Z,48.68
2023-03-30T01:00:54.437Z,48.70
2023-03-30T01:04:02.422Z,49.28
2023-03-30T01:07:06.110Z,48.58
2023-03-30T01:10:09.294Z,49.29
2023-03-30T01:13:14.784Z,48.34
2023-03-30T01:16:45.871Z,49.13
2023-03-30T01:20:13.037Z,48.61
2023-03-30T01:23:35.518Z,48.19
2023-03-30T01:27:10.285Z,47.90
2023-03-30T01:30:33.625Z,47.42
2023-03-30T01:34:06.503Z,47.48
2023-03-30T01:37:32.623Z,47.53
2023-03-30T01:40:43.262Z,48.05
2023-03-30T01:43:56.442Z,48.66
2023-03-30T01:47:06.410Z,48.72
2023-03-30T01:50:21.845Z,47.50
2023-03-30T01:53:56.560Z,48.63
2023-03-30T01:57:34.276Z,47.75
2023-03-30T02:00:41.078Z,49.13
2023-03-30T02:03:48.024Z,47.75
2023-03-30T02:06:58.807Z,48.00
2023-03-30T02:10:04.952Z,47.87
2023-03-30T02:13:09.771Z,47.75
2023-03-30T02:16:22.182Z,47.38
2023-03-30T02:19:28.353Z,46.78
2023-03-30T02:22:32.606Z,47.17
2023-03-30T02:25:38.654Z,47.45
2023-03-30T02:28:41.126Z,47.27
2023-03-30T02:31:45.689Z,46.55
2023-03-30T02:35:18.929Z,46.89
2023-03-30T02:38:35.687Z,47.21
2023-03-30T02:42:05.076Z,47.34
2023-03-30T02:45:10.662Z,46.53
2023-03-30T02:48:36.837Z,46.65
2023-03-30T02:51:53.141Z,46.58
2023-03-30T02:55:14.825Z,46.72
2023-03-30T02:58:43.698Z,47.94
2023-03-30T03:02:09.618Z,48.58
2023-03-30T03:05:14.859Z,49.41
2023-03-30T03:08:40.542Z,49.55
2023-03-30T03:11:44.886Z,49.53
2023-03-30T03:14:47.030Z,49.34
2023-03-30T03:17:51.728Z,49.30
2023-03-30T03:20:53.945Z,48.67
2023-03-30T03:23:58.458Z,49.10
2023-03-30T03:27:11.969Z,50.07
2023-03-30T03:30:36.146Z,49.02
2023-03-30T03:33:44.303Z,49.33
2023-03-30T03:36:59.685Z,48.53
2023-03-30T03:40:06.440Z,48.93
2023-03-30T03:43:08.654Z,49.02
2023-03-30T03:46:11.598Z,49.23
2023-03-30T03:49:13.942Z,48.66
2023-03-30T03:52:16.121Z,48.42
2023-03-30T03:55:18.755Z,48.72
2023-03-30T03:58:27.431Z,49.42
2023-03-30T04:01:32.674Z,48.74
2023-03-30T04:04:38.524Z,48.48
2023-03-30T04:07:41.772Z,48.59
2023-03-30T04:10:44.402Z,49.31
2023-03-30T04:14:15.742Z,48.85
2023-03-30T04:17:50.087Z,49.39
2023-03-30T04:21:13.750Z,49.42
2023-03-30T04:24:29.906Z,49.12
2023-03-30T04:27:53.630Z,48.70
2023-03-30T04:31:10.797Z,49.38
2023-03-30T04:34:36.281Z,49.77
2023-03-30T04:38:02.497Z,49.43
2023-03-30T04:41:36.174Z,49.73
2023-03-30T04:45:07.151Z,52.16
2023-03-30T04:48:39.434Z,50.47
2023-03-30T04:52:00.691Z,49.83
2023-03-30T04:55:26.813Z,49.39
2023-03-30T04:59:04.367Z,49.79
2023-03-30T05:02:26.497Z,57.32
2023-03-30T05:05:55.806Z,57.50
2023-03-30T05:09:36.497Z,58.39
2023-03-30T05:13:01.763Z,54.59
2023-03-30T05:16:28.582Z,56.25
2023-03-30T05:20:10.254Z,57.40
2023-03-30T05:23:36.454Z,57.86
2023-03-30T05:27:13.145Z,60.46
2023-03-30T05:30:35.197Z,62.06
2023-03-30T05:34:11.137Z,60.81
2023-03-30T05:37:37.421Z,63.21
2023-03-30T05:40:58.834Z,66.62
2023-03-30T05:44:22.421Z,65.66
2023-03-30T05:47:35.039Z,64.86
2023-03-30T05:51:17.610Z,66.64
2023-03-30T05:54:36.550Z,62.33
2023-03-30T05:57:50.564Z,60.94
2023-03-30T06:01:16.333Z,64.44
2023-03-30T06:04:21.201Z,57.14
2023-03-30T06:07:32.251Z,58.44
2023-03-30T06:10:36.218Z,57.66
2023-03-30T06:13:38.977Z,58.09
2023-03-30T06:16:41.349Z,56.27
2023-03-30T06:19:45.267Z,55.75
2023-03-30T06:22:48.806Z,59.89
2023-03-30T06:25:59.631Z,57.45
2023-03-30T06:29:07.740Z,57.96
2023-03-30T06:32:10.437Z,58.62
2023-03-30T06:35:30.512Z,55.67
2023-03-30T06:38:36.195Z,56.27
2023-03-30T06:41:38.515Z,56.70
2023-03-30T06:44:40.789Z,57.53
2023-03-30T06:47:48.659Z,57.60
2023-03-30T06:50:54.705Z,55.89
2023-03-30T06:53:59.573Z,57.28
2023-03-30T06:57:04.366Z,56.31
2023-03-30T07:00:26.274Z,54.12
2023-03-30T07:03:48.884Z,54.52
2023-03-30T07:06:59.654Z,49.84
2023-03-30T07:10:53.084Z,51.55
2023-03-30T07:14:08.364Z,52.00
2023-03-30T07:17:13.335Z,50.65
2023-03-30T07:20:17.579Z,50.66
2023-03-30T07:23:46.117Z,51.19
2023-03-30T07:27:01.338Z,49.68
2023-03-30T07:30:20.673Z,48.96
2023-03-30T07:33:29.935Z,49.48
2023-03-30T07:36:34.109Z,49.20
2023-03-30T07:39:37.245Z,48.88
2023-03-30T07:42:43.408Z,48.23
2023-03-30T07:45:46.250Z,49.17
2023-03-30T07:48:56.223Z,47.98
2023-03-30T07:51:59.434Z,48.37
2023-03-30T07:55:12.482Z,49.28
2023-03-30T07:58:24.841Z,49.38
2023-03-30T08:01:28.124Z,48.85
2023-03-30T08:04:50.951Z,47.69
2023-03-30T08:08:01.244Z,48.77
2023-03-30T08:11:09.253Z,48.53
2023-03-30T08:14:15.735Z,47.01
2023-03-30T08:17:19.424Z,47.63
2023-03-30T08:20:21.944Z,46.60
2023-03-30T08:23:25.317Z,48.40
2023-03-30T08:26:30.186Z,48.12
2023-03-30T08:29:33.955Z,47.54
2023-03-30T08:32:36.152Z,50.43
2023-03-30T08:35:38.352Z,53.12
2023-03-30T08:38:41.235Z,55.65
2023-03-30T08:41:58.206Z,59.95
2023-03-30T08:45:06.711Z,62.71
2023-03-30T08:48:25.096Z,71.93
2023-03-30T08:51:36.018Z,68.74
2023-03-30T08:54:38.246Z,75.98
2023-03-30T08:57:55.133Z,71.47
2023-03-30T09:01:15.062Z,72.91
2023-03-30T09:05:02.103Z,70.67
2023-03-30T09:08:18.480Z,73.21
2023-03-30T09:11:35.756Z,72.84
2023-03-30T09:14:46.662Z,74.62
2023-03-30T09:17:55.366Z,70.16
2023-03-30T09:21:01.696Z,72.38
2023-03-30T09:24:14.635Z,71.51
2023-03-30T09:27:25.416Z,70.92
2023-03-30T09:30:40.747Z,70.14
2023-03-30T09:33:54.908Z,69.29
2023-03-30T09:36:59.085Z,69.23
2023-03-30T09:40:48.575Z,73.21
2023-03-30T09:43:52.967Z,73.20
2023-03-30T09:46:59.124Z,72.30
2023-03-30T09:50:05.980Z,72.42
2023-03-30T09:53:35.249Z,72.91
2023-03-30T09:56:51.542Z,71.54
2023-03-30T09:59:56.017Z,71.79
2023-03-30T10:03:07.022Z,70.84
2023-03-30T10:06:19.891Z,70.31
2023-03-30T10:09:24.177Z,71.11
2023-03-30T10:12:28.572Z,70.56
2023-03-30T10:15:35.643Z,70.90
2023-03-30T10:18:41.579Z,72.40
2023-03-30T10:21:47.152Z,71.82
2023-03-30T10:24:55.550Z,73.00
2023-03-30T10:28:01.491Z,73.05
2023-03-30T10:31:13.109Z,73.38
2023-03-30T10:34:21.026Z,73.49
2023-03-30T10:37:32.075Z,75.11
2023-03-30T10:40:42.357Z,74.26
2023-03-30T10:43:45.121Z,75.05
2023-03-30T10:46:49.117Z,73.88
2023-03-30T10:50:27.010Z,77.10
2023-03-30T10:53:43.119Z,75.99
2023-03-30T10:56:55.976Z,75.12
2023-03-30T11:00:23.091Z,74.78
2023-03-30T11:03:29.840Z,73.59
2023-03-30T11:06:42.305Z,71.25
2023-03-30T11:09:55.079Z,73.38
2023-03-30T11:13:06.017Z,74.91
2023-03-30T11:16:23.665Z,72.20
2023-03-30T11:19:47.824Z,73.70
2023-03-30T11:23:47.300Z,71.23
2023-03-30T11:27:14.317Z,69.96
2023-03-30T11:30:27.894Z,68.23
2023-03-30T11:33:46.875Z,69.95
2023-03-30T11:37:00.662Z,70.79
2023-03-30T11:40:16.728Z,68.80
2023-03-30T11:43:26.506Z,68.30
2023-03-30T11:47:09.693Z,67.80
2023-03-30T11:50:39.047Z,66.65
2023-03-30T11:54:12.214Z,67.31
2023-03-30T11:58:06.609Z,67.41
2023-03-30T12:01:24.431Z,68.55
2023-03-30T12:04:58.911Z,68.30
2023-03-30T12:08:10.607Z,67.14
2023-03-30T12:11:33.536Z,67.81
2023-03-30T12:14:45.901Z,66.70
2023-03-30T12:17:49.172Z,67.56
2023-03-30T12:21:17.919Z,67.99
2023-03-30T12:24:34.104Z,68.62
2023-03-30T12:27:37.686Z,65.72
2023-03-30T12:30:59.823Z,67.22
2023-03-30T12:34:16.193Z,67.03
2023-03-30T12:37:24.703Z,66.24
2023-03-30T12:40:29.737Z,66.50
2023-03-30T12:43:42.601Z,67.14
2023-03-30T12:47:12.602Z,65.64
2023-03-30T12:50:42.699Z,65.61
2023-03-30T12:54:25.217Z,64.36
2023-03-30T12:58:01.340Z,63.99
2023-03-30T13:01:22.638Z,65.33
2023-03-30T13:04:30.199Z,65.80
2023-03-30T13:07:36.580Z,64.50
2023-03-30T13:10:43.303Z,66.42
2023-03-30T13:14:30.458Z,65.44
2023-03-30T13:17:56.755Z,66.25
2023-03-30T13:21:17.172Z,65.63
2023-03-30T13:24:28.691Z,65.10
2023-03-30T13:27:36.873Z,65.70
2023-03-30T13:30:39.161Z,64.71
2023-03-30T13:33:52.845Z,63.89
2023-03-30T13:37:05.107Z,65.27
2023-03-30T13:40:44.108Z,63.38
2023-03-30T13:44:18.721Z,74.19
2023-03-30T13:47:52.699Z,73.33
2023-03-30T13:51:02.488Z,75.29
2023-03-30T13:54:12.574Z,69.50
2023-03-30T13:57:22.043Z,66.09
2023-03-30T14:00:48.659Z,65.71
2023-03-30T14:03:57.484Z,65.31
2023-03-30T14:07:25.876Z,65.84
2023-03-30T14:10:28.192Z,67.60
2023-03-30T14:13:30.460Z,68.64
2023-03-30T14:16:36.858Z,67.31
2023-03-30T14:19:52.838Z,72.46
2023-03-30T14:22:58.708Z,74.12
2023-03-30T14:26:04.100Z,82.63
2023-03-30T14:29:13.256Z,85.64
2023-03-30T14:32:17.370Z,89.39
2023-03-30T14:35:19.547Z,95.33
2023-03-30T14:38:34.894Z,95.63
2023-03-30T14:41:38.898Z,94.88
2023-03-30T14:44:41.851Z,90.31
2023-03-30T14:47:46.312Z,89.66
2023-03-30T14:50:49.277Z,87.21
2023-03-30T14:53:53.430Z,85.41
2023-03-30T14:57:01.138Z,84.82
2023-03-30T15:00:21.702Z,85.91
2023-03-30T15:03:33.513Z,85.15
2023-03-30T15:06:58.489Z,82.98
2023-03-30T15:11:34.539Z,82.70
2023-03-30T15:14:42.652Z,79.70
2023-03-30T15:17:50.754Z,78.89
2023-03-30T15:20:56.850Z,76.35
2023-03-30T15:24:01.526Z,74.63
2023-03-30T15:27:07.017Z,73.77
2023-03-30T15:30:37.563Z,72.14
2023-03-30T15:34:01.636Z,71.11
2023-03-30T15:37:04.291Z,70.43
2023-03-30T15:40:28.586Z,71.35
2023-03-30T15:43:33.593Z,70.73
2023-03-30T15:46:36.523Z,71.56
2023-03-30T15:49:43.850Z,69.73
2023-03-30T15:52:46.916Z,72.90
2023-03-30T15:55:52.121Z,73.57
2023-03-30T15:58:54.564Z,76.92
2023-03-30T16:02:02.417Z,75.44
2023-03-30T16:05:08.299Z,74.94
2023-03-30T16:08:11.319Z,75.25
2023-03-30T16:11:16.372Z,74.45
2023-03-30T16:14:23.091Z,74.39
2023-03-30T16:17:25.862Z,74.31
2023-03-30T16:20:31.532Z,74.92
2023-03-30T16:23:33.937Z,74.12
2023-03-30T16:26:36.181Z,75.14
2023-03-30T16:29:38.348Z,74.64
2023-03-30T16:32:40.453Z,73.95
2023-03-30T16:35:49.974Z,73.82
2023-03-30T16:38:53.032Z,74.22
2023-03-30T16:41:56.379Z,73.29
2023-03-30T16:44:58.566Z,70.54
2023-03-30T16:48:01.429Z,72.70
2023-03-30T16:51:06.703Z,62.33
2023-03-30T16:54:29.480Z,63.92
2023-03-30T16:57:34.128Z,62.84
2023-03-30T17:00:43.221Z,64.50
2023-03-30T17:03:48.009Z,60.71
2023-03-30T17:06:50.313Z,61.99
2023-03-30T17:09:52.469Z,61.57
2023-03-30T17:12:55.845Z,63.43
2023-03-30T17:16:00.089Z,61.96
2023-03-30T17:19:02.525Z,62.85
2023-03-30T17:22:04.621Z,63.32
2023-03-30T17:25:09.054Z,64.61
2023-03-30T17:28:23.907Z,64.60
2023-03-30T17:31:26.406Z,63.96
2023-03-30T17:34:28.720Z,64.74
2023-03-30T17:42:56.620Z,64.65
2023-03-30T17:46:00.007Z,65.73
2023-03-30T17:49:19.326Z,65.44
2023-03-30T17:52:21.498Z,66.19
2023-03-30T17:55:39.866Z,66.55
2023-03-30T17:58:48.983Z,66.32
2023-03-30T18:01:56.555Z,67.14
2023-03-30T18:05:17.278Z,67.17
2023-03-30T18:08:21.588Z,67.59
2023-03-30T18:11:27.891Z,65.83
2023-03-30T18:14:32.382Z,63.73
2023-03-30T18:17:34.507Z,62.31
2023-03-30T18:20:44.297Z,61.52
2023-03-30T18:23:47.786Z,61.68
2023-03-30T18:26:51.612Z,60.88
2023-03-30T18:30:21.536Z,61.31
2023-03-30T18:33:25.355Z,61.17
2023-03-30T18:36:28.110Z,60.42
2023-03-30T18:39:30.232Z,65.11
2023-03-30T18:42:45.998Z,71.02
2023-03-30T18:45:50.014Z,73.68
2023-03-30T18:48:54.424Z,78.49
2023-03-30T18:51:58.505Z,77.82
2023-03-30T18:55:04.469Z,78.13
2023-03-30T18:58:22.229Z,76.94
2023-03-30T19:01:27.394Z,75.62
2023-03-30T19:04:32.216Z,73.69
2023-03-30T19:07:37.225Z,72.63
2023-03-30T19:10:42.676Z,69.45
2023-03-30T19:13:47.806Z,68.95
2023-03-30T19:16:49.942Z,68.23
2023-03-30T19:23:13.363Z,67.64
2023-03-30T19:26:18.815Z,67.50
2023-03-30T19:29:21.127Z,66.97
2023-03-30T19:32:26.156Z,66.52
2023-03-30T19:35:31.576Z,66.44
2023-03-30T19:38:35.248Z,66.61
2023-03-30T19:41:44.416Z,64.78
2023-03-30T19:44:55.344Z,64.09
2023-03-30T19:47:57.468Z,63.65
2023-03-30T19:51:02.021Z,63.34
2023-03-30T19:54:05.356Z,62.42
2023-03-30T19:57:18.939Z,62.91
2023-03-30T20:00:23.060Z,62.54
2023-03-30T20:03:31.231Z,61.99
2023-03-30T20:06:36.703Z,62.22
2023-03-30T20:09:42.991Z,61.78
2023-03-30T20:12:48.105Z,61.07
2023-03-30T20:15:58.066Z,61.83
2023-03-30T20:19:02.496Z,61.03
2023-03-30T20:22:04.627Z,60.30
2023-03-30T20:25:08.809Z,60.53
2023-03-30T20:31:57.951Z,60.47
2023-03-30T20:35:00.231Z,60.48
2023-03-30T20:38:08.228Z,59.23
2023-03-30T20:41:12.018Z,59.86
2023-03-30T20:44:14.341Z,61.36
2023-03-30T20:47:32.954Z,60.07
2023-03-30T20:50:35.293Z,62.46
2023-03-30T20:53:38.077Z,60.44
2023-03-30T20:56:46.913Z,60.48
2023-03-30T20:59:50.494Z,60.90
2023-03-30T21:02:52.874Z,60.74
2023-03-30T21:06:06.534Z,61.85
2023-03-30T21:09:10.112Z,61.63
2023-03-30T21:12:12.202Z,61.23
2023-03-30T21:15:15.313Z,60.81
2023-03-30T21:18:17.416Z,60.62
2023-03-30T21:21:19.808Z,62.10
2023-03-30T21:24:21.984Z,61.43
2023-03-30T21:27:28.034Z,60.71
2023-03-30T21:30:33.405Z,61.52
2023-03-30T21:33:36.635Z,61.62
2023-03-30T21:36:39.564Z,61.47
2023-03-30T21:39:42.091Z,60.60
2023-03-30T21:42:44.447Z,59.92
2023-03-30T21:45:55.740Z,60.73
2023-03-30T21:48:58.071Z,59.43
2023-03-30T21:52:00.370Z,60.54
2023-03-30T21:55:03.064Z,60.08
2023-03-30T21:58:05.511Z,58.53
2023-03-30T22:01:11.900Z,58.54
2023-03-30T22:04:15.102Z,58.42
2023-03-30T22:07:17.295Z,58.01
2023-03-30T22:10:19.570Z,58.99
2023-03-30T22:13:21.721Z,58.77
2023-03-30T22:16:29.242Z,59.00
2023-03-30T22:19:32.107Z,58.30
2023-03-30T22:22:34.707Z,59.56
2023-03-30T22:25:37.221Z,58.93
2023-03-30T22:28:40.113Z,59.05
2023-03-30T22:31:42.372Z,58.86
2023-03-30T22:34:44.647Z,59.90
2023-03-30T22:37:46.670Z,58.51
2023-03-30T22:40:48.737Z,59.11
2023-03-30T22:43:52.108Z,58.96
2023-03-30T22:46:54.453Z,59.27
2023-03-30T22:49:56.560Z,59.26
2023-03-30T22:52:58.670Z,59.24
2023-03-30T22:56:01.656Z,60.85
2023-03-30T22:59:03.845Z,59.35
2023-03-30T23:02:05.903Z,58.82
2023-03-30T23:05:09.060Z,59.93
2023-03-30T23:08:12.387Z,59.60
2023-03-30T23:11:14.506Z,60.56
2023-03-30T23:14:16.757Z,60.41
2023-03-30T23:17:18.828Z,59.96
2023-03-30T23:20:22.229Z,60.06
2023-03-30T23:23:24.517Z,60.47
2023-03-30T23:26:27.605Z,60.77
2023-03-30T23:29:29.632Z,62.31
2023-03-30T23:32:32.112Z,62.35
2023-03-30T23:35:34.555Z,61.84
2023-03-30T23:38:37.610Z,61.70
2023-03-30T23:41:39.762Z,61.92
2023-03-30T23:44:41.834Z,61.96
2023-03-30T23:47:44.184Z,61.43
2023-03-30T23:50:46.670Z,62.33
2023-03-30T23:53:54.549Z,62.53
2023-03-30T23:56:57.834Z,62.12
2023-03-30T23:59:59.902Z,62.51
